ダブリン の空港の天気 - METARとTAF

ダブリン空港 ( EIDW / DUB ) - アイルランド ダブリン
飛行場実況気象(Metar)
観測時間11/22 12:30 GMT (11/22 12:30 UTC)
風向・風速北 2m/s
視程4000m
天気現象弱い雨 弱い霧雨
全天の4割程度の雲 雲底高度 120m
全天の8割程度の雲 雲底高度 370m
全天の8割程度の雲 雲底高度 670m
気温9℃
湿度100%
気圧983hPa
METAREIDW 221230Z 36004KT 330V030 4000 -RADZ SCT004 BKN012 BKN022 09/09 Q0983 NOSIG
過去の天気等 Google飛行場航空写真 Wunderground天気予報

過去48時間のMETAR

飛行場予報(TAF)
発表時間: 11/22 11:05 GMT (11/22 11:05 UTC)
予報対象時間: 22日11時 GMT ~ 23日6時 GMT
風向・風速北 7m/s
視程10km以上
全天の4割程度の雲 雲底高度 300m
全天の8割程度の雲 雲底高度 610m
22日11時 GMT ~ 22日13時 GMT に徐々に
風向・風速不定 2m/s
22日11時 GMT ~ 22日18時 GMT に一時的に
視程4,000m
天気現象
全天の8割程度の雲 雲底高度 210m
22日17時 GMT ~ 22日20時 GMT に徐々に
風向・風速西 6m/s
23日2時 GMT ~ 23日5時 GMT に徐々に
風向・風速南西 11m/s 瞬間風速 18m/s
TAF AMD EIDW 221105Z 2211/2306 36013KT 9999 SCT010 BKN020
BECMG 2211/2213 VRB03KT
TEMPO 2211/2218 4000 RA BKN007
BECMG 2217/2220 27012KT
BECMG 2302/2305 22022G35KT